createdAt,value
2022-12-08T00:01:12.511Z,8.28
2022-12-08T00:03:39.900Z,8.07
2022-12-08T00:06:31.553Z,8.24
2022-12-08T00:09:17.101Z,8.37
2022-12-08T00:11:44.015Z,8.38
2022-12-08T00:14:10.744Z,8.63
2022-12-08T00:16:37.670Z,8.43
2022-12-08T00:19:04.506Z,8.57
2022-12-08T00:21:31.434Z,8.55
2022-12-08T00:23:58.188Z,8.37
2022-12-08T00:26:25.072Z,8.46
2022-12-08T00:28:51.852Z,8.61
2022-12-08T00:31:18.893Z,8.35
2022-12-08T00:33:45.839Z,8.44
2022-12-08T00:36:14.750Z,8.33
2022-12-08T00:38:41.914Z,8.41
2022-12-08T00:41:40.735Z,8.40
2022-12-08T00:44:08.540Z,7.82
2022-12-08T00:46:36.299Z,7.75
2022-12-08T00:49:04.493Z,7.73
2022-12-08T00:51:31.940Z,7.84
2022-12-08T00:53:58.807Z,7.93
2022-12-08T00:56:26.436Z,7.79
2022-12-08T00:58:53.334Z,7.75
2022-12-08T01:01:20.439Z,7.50
2022-12-08T01:03:47.873Z,7.62
2022-12-08T01:06:14.777Z,7.37
2022-12-08T01:08:42.326Z,7.57
2022-12-08T01:11:17.886Z,7.61
2022-12-08T01:13:45.689Z,6.75
2022-12-08T01:16:24.111Z,7.24
2022-12-08T01:18:51.107Z,7.04
2022-12-08T01:21:18.919Z,7.25
2022-12-08T01:23:46.304Z,7.37
2022-12-08T01:26:15.142Z,7.68
2022-12-08T01:28:42.761Z,7.48
2022-12-08T01:31:15.481Z,7.01
2022-12-08T01:33:42.985Z,7.26
2022-12-08T01:36:20.431Z,7.24
2022-12-08T01:38:47.377Z,6.98
2022-12-08T01:41:16.960Z,6.98
2022-12-08T01:44:24.022Z,7.07
2022-12-08T01:46:53.644Z,7.12
2022-12-08T01:49:30.823Z,7.10
2022-12-08T01:52:06.369Z,7.28
2022-12-08T01:54:39.266Z,7.00
2022-12-08T01:57:15.409Z,7.39
2022-12-08T02:02:42.047Z,7.03
2022-12-08T02:05:10.043Z,7.21
2022-12-08T02:07:37.584Z,7.00
2022-12-08T02:10:05.409Z,7.41
2022-12-08T02:12:32.764Z,6.85
2022-12-08T02:15:04.736Z,7.03
2022-12-08T02:17:53.603Z,7.17
2022-12-08T02:20:59.258Z,7.00
2022-12-08T02:23:36.121Z,7.34
2022-12-08T02:26:05.615Z,6.94
2022-12-08T02:28:58.608Z,6.96
2022-12-08T02:31:37.346Z,7.00
2022-12-08T02:34:36.342Z,7.39
2022-12-08T02:37:20.080Z,7.37
2022-12-08T02:39:52.762Z,7.44
2022-12-08T02:42:31.587Z,7.29
2022-12-08T02:45:09.590Z,7.49
2022-12-08T02:47:37.055Z,7.26
2022-12-08T02:50:04.517Z,6.88
2022-12-08T02:52:31.558Z,7.13
2022-12-08T02:55:14.413Z,7.09
2022-12-08T02:57:59.060Z,7.00
2022-12-08T03:00:29.670Z,6.49
2022-12-08T03:03:33.755Z,6.86
2022-12-08T03:06:36.930Z,7.19
2022-12-08T03:09:12.544Z,6.98
2022-12-08T03:11:49.974Z,6.74
2022-12-08T03:14:18.195Z,6.97
2022-12-08T03:16:49.843Z,6.82
2022-12-08T03:19:21.053Z,6.70
2022-12-08T03:21:52.615Z,6.54
2022-12-08T03:24:22.936Z,6.78
2022-12-08T03:26:59.982Z,6.64
2022-12-08T03:29:27.078Z,6.64
2022-12-08T03:32:01.493Z,6.59
2022-12-08T03:34:30.041Z,6.52
2022-12-08T03:36:56.876Z,6.33
2022-12-08T03:39:24.450Z,5.52
2022-12-08T03:41:51.217Z,5.70
2022-12-08T03:44:18.084Z,5.72
2022-12-08T03:46:45.864Z,6.01
2022-12-08T03:49:12.628Z,6.13
2022-12-08T03:51:39.600Z,6.23
2022-12-08T03:54:06.385Z,6.38
2022-12-08T03:56:38.506Z,6.57
2022-12-08T03:59:06.620Z,6.24
2022-12-08T04:01:33.721Z,6.36
2022-12-08T04:04:00.699Z,6.43
2022-12-08T04:06:27.424Z,6.58
2022-12-08T04:08:54.532Z,6.86
2022-12-08T04:11:22.016Z,6.52
2022-12-08T04:13:49.059Z,6.56
2022-12-08T04:16:26.710Z,6.50
2022-12-08T04:18:53.960Z,6.40
2022-12-08T04:21:20.766Z,6.69
2022-12-08T04:23:48.003Z,6.39
2022-12-08T04:26:15.159Z,6.24
2022-12-08T04:28:42.020Z,6.35
2022-12-08T04:31:08.998Z,6.46
2022-12-08T04:33:36.183Z,6.56
2022-12-08T04:36:05.014Z,6.48
2022-12-08T04:38:32.788Z,6.52
2022-12-08T04:40:59.632Z,6.34
2022-12-08T04:43:26.471Z,6.39
2022-12-08T04:45:53.250Z,6.52
2022-12-08T04:48:20.287Z,6.56
2022-12-08T04:50:47.262Z,6.59
2022-12-08T04:53:14.439Z,6.60
2022-12-08T04:55:43.819Z,6.62
2022-12-08T04:58:20.508Z,6.55
2022-12-08T05:00:47.965Z,6.68
2022-12-08T05:03:15.613Z,6.78
2022-12-08T05:05:43.566Z,6.75
2022-12-08T05:08:11.022Z,6.83
2022-12-08T05:10:38.126Z,6.74
2022-12-08T05:13:04.958Z,6.72
2022-12-08T05:15:31.802Z,6.85
2022-12-08T05:17:58.642Z,6.85
2022-12-08T05:20:25.478Z,6.80
2022-12-08T05:23:10.997Z,6.78
2022-12-08T05:25:38.342Z,6.64
2022-12-08T05:28:32.692Z,6.43
2022-12-08T05:30:52.497Z,6.53
2022-12-08T05:33:20.339Z,6.63
2022-12-08T05:35:47.149Z,6.48
2022-12-08T05:38:14.085Z,6.61
2022-12-08T05:40:41.862Z,6.04
2022-12-08T05:43:10.075Z,6.29
2022-12-08T05:45:37.026Z,6.46
2022-12-08T05:48:04.289Z,6.61
2022-12-08T05:50:31.189Z,6.45
2022-12-08T05:52:58.303Z,6.38
2022-12-08T05:55:25.146Z,6.31
2022-12-08T05:57:51.948Z,6.43
2022-12-08T06:00:19.371Z,6.48
2022-12-08T06:02:46.665Z,6.46
2022-12-08T06:05:13.405Z,6.09
2022-12-08T06:07:40.191Z,6.08
2022-12-08T06:10:07.733Z,6.26
2022-12-08T06:12:34.672Z,6.47
2022-12-08T06:15:01.424Z,6.58
2022-12-08T06:17:28.669Z,6.31
2022-12-08T06:19:55.462Z,6.62
2022-12-08T06:22:22.346Z,6.63
2022-12-08T06:24:49.157Z,6.60
2022-12-08T06:27:15.897Z,6.54
2022-12-08T06:29:42.804Z,6.59
2022-12-08T06:32:09.674Z,6.48
2022-12-08T06:34:36.451Z,6.44
2022-12-08T06:37:03.302Z,6.14
2022-12-08T06:39:30.063Z,5.98
2022-12-08T06:42:15.719Z,5.64
2022-12-08T06:44:42.659Z,6.22
2022-12-08T06:47:09.418Z,6.39
2022-12-08T06:49:36.176Z,6.67
2022-12-08T06:52:03.097Z,6.89
2022-12-08T06:54:29.897Z,7.00
2022-12-08T06:56:56.835Z,7.19
2022-12-08T06:59:26.021Z,7.25
2022-12-08T07:01:52.960Z,7.04
2022-12-08T07:04:19.760Z,6.47
2022-12-08T07:06:46.673Z,6.96
2022-12-08T07:09:13.490Z,7.13
2022-12-08T07:11:40.249Z,7.22
2022-12-08T07:14:07.114Z,7.21
2022-12-08T07:16:34.203Z,6.66
2022-12-08T07:19:01.103Z,7.22
2022-12-08T07:21:27.847Z,6.74
2022-12-08T07:23:57.928Z,6.88
2022-12-08T07:26:25.355Z,6.95
2022-12-08T07:28:52.176Z,7.18
2022-12-08T07:31:21.986Z,7.15
2022-12-08T07:33:50.275Z,7.16
2022-12-08T07:36:17.352Z,7.02
2022-12-08T07:38:44.671Z,7.55
2022-12-08T07:41:13.572Z,7.07
2022-12-08T07:43:40.895Z,7.30
2022-12-08T07:46:08.312Z,7.55
2022-12-08T07:48:35.264Z,7.02
2022-12-08T07:51:04.409Z,7.33
2022-12-08T07:53:31.964Z,7.50
2022-12-08T07:55:59.797Z,7.40
2022-12-08T07:58:27.749Z,7.42
2022-12-08T08:00:54.718Z,7.59
2022-12-08T08:03:22.489Z,7.60
2022-12-08T08:05:50.296Z,7.75
2022-12-08T08:08:18.234Z,7.64
2022-12-08T08:10:46.305Z,7.34
2022-12-08T08:13:14.165Z,7.61
2022-12-08T08:15:40.976Z,7.53
2022-12-08T08:18:07.985Z,8.00
2022-12-08T08:20:34.764Z,7.95
2022-12-08T08:23:01.529Z,7.80
2022-12-08T08:25:28.333Z,7.72
2022-12-08T08:27:56.116Z,8.23
2022-12-08T08:30:24.146Z,8.17
2022-12-08T08:32:51.001Z,8.46
2022-12-08T08:35:18.330Z,8.48
2022-12-08T08:37:48.862Z,8.52
2022-12-08T08:40:17.729Z,8.55
2022-12-08T08:42:44.527Z,8.31
2022-12-08T08:45:12.449Z,8.82
2022-12-08T08:47:39.201Z,8.59
2022-12-08T08:50:07.248Z,8.60
2022-12-08T08:52:34.388Z,9.25
2022-12-08T08:55:01.097Z,9.53
2022-12-08T08:57:28.062Z,10.00
2022-12-08T08:59:55.953Z,10.53
2022-12-08T09:02:22.686Z,10.83
2022-12-08T09:04:49.733Z,11.08
2022-12-08T09:07:16.592Z,11.54
2022-12-08T09:09:43.811Z,11.71
2022-12-08T09:12:10.803Z,12.08
2022-12-08T09:14:37.630Z,12.20
2022-12-08T09:17:05.049Z,12.51
2022-12-08T09:19:32.751Z,12.42
2022-12-08T09:21:59.516Z,12.45
2022-12-08T09:24:27.225Z,12.10
2022-12-08T09:26:54.232Z,12.36
2022-12-08T09:29:39.649Z,12.24
2022-12-08T09:32:07.495Z,12.33
2022-12-08T09:34:34.276Z,12.71
2022-12-08T09:37:01.274Z,12.14
2022-12-08T09:39:28.275Z,11.80
2022-12-08T09:42:00.165Z,12.12
2022-12-08T09:44:47.900Z,12.16
2022-12-08T09:47:37.389Z,11.86
2022-12-08T09:50:12.519Z,11.53
2022-12-08T09:52:49.895Z,12.03
2022-12-08T09:55:25.584Z,12.48
2022-12-08T09:58:03.062Z,12.83
2022-12-08T10:00:30.090Z,12.35
2022-12-08T10:02:57.719Z,12.46
2022-12-08T10:05:28.257Z,12.46
2022-12-08T10:08:26.381Z,12.47
2022-12-08T10:11:02.424Z,12.54
2022-12-08T10:14:08.661Z,12.58
2022-12-08T10:16:46.270Z,12.82
2022-12-08T10:19:21.353Z,12.89
2022-12-08T10:21:49.114Z,13.27
2022-12-08T10:24:31.570Z,13.28
2022-12-08T10:26:59.146Z,13.63
2022-12-08T10:29:25.947Z,13.67
2022-12-08T10:31:52.970Z,13.81
2022-12-08T10:34:24.199Z,13.59
2022-12-08T10:36:57.076Z,13.54
2022-12-08T10:39:40.640Z,13.33
2022-12-08T10:42:14.997Z,13.57
2022-12-08T10:45:09.327Z,12.99
2022-12-08T10:47:44.766Z,13.12
2022-12-08T10:50:23.523Z,13.41
2022-12-08T10:53:08.302Z,13.34
2022-12-08T10:56:01.314Z,13.16
2022-12-08T10:58:41.603Z,12.59
2022-12-08T11:01:21.649Z,12.63
2022-12-08T11:03:55.762Z,12.98
2022-12-08T11:06:22.842Z,12.89
2022-12-08T11:08:53.988Z,12.92
2022-12-08T11:11:27.687Z,13.03
2022-12-08T11:13:56.605Z,12.46
2022-12-08T11:16:23.738Z,12.71
2022-12-08T11:19:06.974Z,12.81
2022-12-08T11:21:37.264Z,12.95
2022-12-08T11:24:23.578Z,12.72
2022-12-08T11:27:02.548Z,12.87
2022-12-08T11:29:32.756Z,13.00
2022-12-08T11:32:02.080Z,13.05
2022-12-08T11:35:05.927Z,13.10
2022-12-08T11:37:43.464Z,13.13
2022-12-08T11:40:23.461Z,13.15
2022-12-08T11:43:17.915Z,12.71
2022-12-08T11:45:46.489Z,13.34
2022-12-08T11:48:16.169Z,13.94
2022-12-08T11:50:52.009Z,14.57
2022-12-08T11:53:43.503Z,14.47
2022-12-08T11:56:20.403Z,14.88
2022-12-08T11:58:55.930Z,15.37
2022-12-08T12:01:25.500Z,15.15
2022-12-08T12:04:29.035Z,15.72
2022-12-08T12:07:01.720Z,16.66
2022-12-08T12:09:47.435Z,16.73
2022-12-08T12:12:39.294Z,16.55
2022-12-08T12:15:56.698Z,15.91
2022-12-08T12:18:32.374Z,15.50
2022-12-08T12:21:07.395Z,14.78
2022-12-08T12:23:44.997Z,15.24
2022-12-08T12:26:21.392Z,15.93
2022-12-08T12:28:52.664Z,16.62
2022-12-08T12:31:25.244Z,17.09
2022-12-08T12:33:57.154Z,17.90
2022-12-08T12:36:25.544Z,18.40
2022-12-08T12:39:01.408Z,19.52
2022-12-08T12:41:51.218Z,19.39
2022-12-08T12:44:18.062Z,18.03
2022-12-08T12:46:50.508Z,18.38
2022-12-08T12:49:38.933Z,18.11
2022-12-08T12:52:15.248Z,16.78
2022-12-08T12:55:04.706Z,16.40
2022-12-08T12:57:40.424Z,16.22
2022-12-08T13:00:17.425Z,15.74
2022-12-08T13:02:44.477Z,15.71
2022-12-08T13:05:20.343Z,15.38
2022-12-08T13:08:02.399Z,15.11
2022-12-08T13:10:42.144Z,15.37
2022-12-08T13:13:16.377Z,15.43
2022-12-08T13:15:56.229Z,15.16
2022-12-08T13:18:36.773Z,15.04
2022-12-08T13:21:08.437Z,15.04
2022-12-08T13:23:38.119Z,14.81
2022-12-08T13:26:27.228Z,14.61
2022-12-08T13:29:01.264Z,14.93
2022-12-08T13:31:51.113Z,15.41
2022-12-08T13:34:39.456Z,15.53
2022-12-08T13:37:06.422Z,15.04
2022-12-08T13:40:05.994Z,15.14
2022-12-08T13:43:02.033Z,14.85
2022-12-08T13:46:18.276Z,14.74
2022-12-08T13:49:09.958Z,15.18
2022-12-08T13:57:27.426Z,14.41
2022-12-08T13:59:54.417Z,14.75
2022-12-08T14:02:34.426Z,14.83
2022-12-08T14:05:18.280Z,14.24
2022-12-08T14:07:48.515Z,14.10
2022-12-08T14:10:27.374Z,14.27
2022-12-08T14:13:00.909Z,14.31
2022-12-08T14:15:31.380Z,14.08
2022-12-08T14:18:03.476Z,14.20
2022-12-08T14:20:33.816Z,14.07
2022-12-08T14:23:09.756Z,14.03
2022-12-08T14:25:37.341Z,14.00
2022-12-08T14:28:04.995Z,14.16
2022-12-08T14:30:33.572Z,14.19
2022-12-08T14:33:02.638Z,14.06
2022-12-08T14:35:37.903Z,13.73
2022-12-08T14:38:19.525Z,14.30
2022-12-08T14:40:48.279Z,14.00
2022-12-08T14:43:20.504Z,13.64
2022-12-08T14:45:50.841Z,13.51
2022-12-08T14:48:38.883Z,13.63
2022-12-08T14:51:21.006Z,13.64
2022-12-08T14:53:52.198Z,13.57
2022-12-08T14:56:28.819Z,13.29
2022-12-08T14:59:37.899Z,13.43
2022-12-08T15:02:19.419Z,13.33
2022-12-08T15:04:48.802Z,13.60
2022-12-08T15:07:23.020Z,13.66
2022-12-08T15:10:25.554Z,13.84
2022-12-08T15:13:01.400Z,13.42
2022-12-08T15:15:29.566Z,13.02
2022-12-08T15:18:12.821Z,13.05
2022-12-08T15:20:44.007Z,13.49
2022-12-08T15:23:44.783Z,13.64
2022-12-08T15:26:24.093Z,13.47
2022-12-08T15:28:53.074Z,13.27
2022-12-08T15:31:20.331Z,13.08
2022-12-08T15:33:47.628Z,12.92
2022-12-08T15:36:14.451Z,12.72
2022-12-08T15:38:42.930Z,12.61
2022-12-08T15:41:14.581Z,12.39
2022-12-08T15:43:42.386Z,12.29
2022-12-08T15:46:09.223Z,12.57
2022-12-08T15:48:37.872Z,12.76
2022-12-08T15:51:04.865Z,12.42
2022-12-08T15:53:31.597Z,12.52
2022-12-08T15:58:56.122Z,12.33
2022-12-08T16:01:24.259Z,12.02
2022-12-08T16:09:32.675Z,12.52
2022-12-08T16:12:18.207Z,12.95
2022-12-08T16:17:33.162Z,12.47
2022-12-08T16:20:01.217Z,12.89
2022-12-08T16:25:19.254Z,12.44
2022-12-08T16:30:36.691Z,12.20
2022-12-08T16:33:05.149Z,12.40
2022-12-08T16:35:32.432Z,12.40
2022-12-08T16:37:59.296Z,11.99
2022-12-08T16:40:26.255Z,12.19
2022-12-08T16:42:53.212Z,12.39
2022-12-08T16:45:28.644Z,12.21
2022-12-08T16:47:58.393Z,12.04
2022-12-08T16:50:28.093Z,12.32
2022-12-08T16:53:04.040Z,12.02
2022-12-08T16:55:32.354Z,12.08
2022-12-08T16:57:59.761Z,11.54
2022-12-08T17:00:29.032Z,11.91
2022-12-08T17:02:56.838Z,12.09
2022-12-08T17:05:25.539Z,12.15
2022-12-08T17:07:53.861Z,12.47
2022-12-08T17:10:23.991Z,12.11
2022-12-08T17:12:51.268Z,12.19
2022-12-08T17:15:21.354Z,12.09
2022-12-08T17:17:48.852Z,12.03
2022-12-08T17:20:21.852Z,12.06
2022-12-08T17:22:49.434Z,11.94
2022-12-08T17:25:16.547Z,12.10
2022-12-08T17:27:43.475Z,11.79
2022-12-08T17:30:15.093Z,12.08
2022-12-08T17:32:42.933Z,11.84
2022-12-08T17:35:10.047Z,11.63
2022-12-08T17:37:36.894Z,11.52
2022-12-08T17:40:04.933Z,11.00
2022-12-08T17:42:31.910Z,11.19
2022-12-08T17:44:58.859Z,11.54
2022-12-08T17:47:25.627Z,11.71
2022-12-08T17:49:52.598Z,11.63
2022-12-08T17:52:19.519Z,10.89
2022-12-08T17:54:46.239Z,11.38
2022-12-08T17:57:13.203Z,11.57
2022-12-08T17:59:40.442Z,11.02
2022-12-08T18:02:10.991Z,11.17
2022-12-08T18:04:37.896Z,11.41
2022-12-08T18:07:04.780Z,11.29
2022-12-08T18:09:31.545Z,11.31
2022-12-08T18:11:58.484Z,11.70
2022-12-08T18:14:25.338Z,11.98
2022-12-08T18:16:56.194Z,12.07
2022-12-08T18:19:26.621Z,11.15
2022-12-08T18:21:53.567Z,11.08
2022-12-08T18:24:23.284Z,11.14
2022-12-08T18:26:52.364Z,11.13
2022-12-08T18:29:21.157Z,11.39
2022-12-08T18:31:48.539Z,11.83
2022-12-08T18:34:15.831Z,11.90
2022-12-08T18:36:42.723Z,12.38
2022-12-08T18:39:24.659Z,12.15
2022-12-08T18:41:53.424Z,11.87
2022-12-08T18:44:20.683Z,12.04
2022-12-08T18:46:47.598Z,12.14
2022-12-08T18:49:16.624Z,11.96
2022-12-08T18:51:43.771Z,12.02
2022-12-08T18:54:12.676Z,12.22
2022-12-08T18:56:39.642Z,12.17
2022-12-08T18:59:09.298Z,12.29
2022-12-08T19:01:38.784Z,12.18
2022-12-08T19:06:54.839Z,12.13
2022-12-08T19:09:22.403Z,11.73
2022-12-08T19:11:49.277Z,11.87
2022-12-08T19:14:16.338Z,11.86
2022-12-08T19:16:44.086Z,12.06
2022-12-08T19:19:11.009Z,12.12
2022-12-08T19:21:44.609Z,11.69
2022-12-08T19:24:13.207Z,11.80
2022-12-08T19:26:40.570Z,11.67
2022-12-08T19:29:07.488Z,11.70
2022-12-08T19:31:34.455Z,10.73
2022-12-08T19:34:01.438Z,10.90
2022-12-08T19:36:35.308Z,11.18
2022-12-08T19:39:33.301Z,11.50
2022-12-08T19:42:18.899Z,11.27
2022-12-08T19:44:55.149Z,11.65
2022-12-08T19:47:27.121Z,11.59
2022-12-08T19:50:15.710Z,11.29
2022-12-08T19:52:43.584Z,11.40
2022-12-08T19:55:11.720Z,11.32
2022-12-08T19:57:39.551Z,10.64
2022-12-08T20:00:08.519Z,11.09
2022-12-08T20:02:36.683Z,11.04
2022-12-08T20:05:05.751Z,11.13
2022-12-08T20:07:32.557Z,11.19
2022-12-08T20:09:59.582Z,11.08
2022-12-08T20:12:26.460Z,11.03
2022-12-08T20:14:54.310Z,11.11
2022-12-08T20:17:21.010Z,11.08
2022-12-08T20:19:47.860Z,11.16
2022-12-08T20:22:14.776Z,10.99
2022-12-08T20:24:41.437Z,10.84
2022-12-08T20:27:08.430Z,10.92
2022-12-08T20:29:35.162Z,10.99
2022-12-08T20:32:02.207Z,11.04
2022-12-08T20:34:30.602Z,11.00
2022-12-08T20:36:57.473Z,11.00
2022-12-08T20:39:24.107Z,11.02
2022-12-08T20:41:52.266Z,11.20
2022-12-08T20:44:19.124Z,10.76
2022-12-08T20:46:49.418Z,10.88
2022-12-08T20:49:17.052Z,10.75
2022-12-08T20:51:44.533Z,10.88
2022-12-08T20:54:11.889Z,10.89
2022-12-08T20:56:42.112Z,10.79
2022-12-08T20:59:16.824Z,10.34
2022-12-08T21:01:43.907Z,10.66
2022-12-08T21:04:12.836Z,10.57
2022-12-08T21:06:39.695Z,10.91
2022-12-08T21:09:06.846Z,10.75
2022-12-08T21:11:33.898Z,10.69
2022-12-08T21:14:00.673Z,10.68
2022-12-08T21:16:28.349Z,10.27
2022-12-08T21:18:55.337Z,10.53
2022-12-08T21:21:22.354Z,10.71
2022-12-08T21:23:49.277Z,10.44
2022-12-08T21:26:19.977Z,10.51
2022-12-08T21:28:46.963Z,10.48
2022-12-08T21:31:17.052Z,10.74
2022-12-08T21:33:44.783Z,10.60
2022-12-08T21:36:14.707Z,10.59
2022-12-08T21:38:42.617Z,10.65
2022-12-08T21:41:11.969Z,10.23
2022-12-08T21:43:39.725Z,10.31
2022-12-08T21:46:06.723Z,10.47
2022-12-08T21:48:33.644Z,10.46
2022-12-08T21:51:05.387Z,10.58
2022-12-08T21:53:32.713Z,10.52
2022-12-08T21:55:59.510Z,10.06
2022-12-08T21:58:26.528Z,9.95
2022-12-08T22:00:53.614Z,10.21
2022-12-08T22:03:20.882Z,10.44
2022-12-08T22:05:47.786Z,10.39
2022-12-08T22:08:15.973Z,10.37
2022-12-08T22:10:47.943Z,10.34
2022-12-08T22:13:14.933Z,10.44
2022-12-08T22:15:42.959Z,10.43
2022-12-08T22:18:11.501Z,10.40
2022-12-08T22:20:43.884Z,10.40
2022-12-08T22:23:11.156Z,10.51
2022-12-08T22:25:38.080Z,10.58
2022-12-08T22:28:06.029Z,10.51
2022-12-08T22:30:38.679Z,10.43
2022-12-08T22:33:06.069Z,9.46
2022-12-08T22:35:32.751Z,10.00
2022-12-08T22:37:59.849Z,10.05
2022-12-08T22:40:26.648Z,10.18
2022-12-08T22:42:53.401Z,9.81
2022-12-08T22:45:20.235Z,10.30
2022-12-08T22:47:47.021Z,10.30
2022-12-08T22:50:14.086Z,10.42
2022-12-08T22:52:40.957Z,10.45
2022-12-08T22:55:08.641Z,10.49
2022-12-08T22:57:35.428Z,10.64
2022-12-08T23:00:03.532Z,10.76
2022-12-08T23:02:30.569Z,10.86
2022-12-08T23:04:57.701Z,10.90
2022-12-08T23:07:25.162Z,10.95
2022-12-08T23:09:52.124Z,10.08
2022-12-08T23:12:19.139Z,10.65
2022-12-08T23:14:46.076Z,10.42
2022-12-08T23:17:13.213Z,10.35
2022-12-08T23:19:40.258Z,10.51
2022-12-08T23:22:07.145Z,10.67
2022-12-08T23:24:33.993Z,10.60
2022-12-08T23:27:01.130Z,10.71
2022-12-08T23:29:28.345Z,10.87
2022-12-08T23:31:55.090Z,10.85
2022-12-08T23:34:22.252Z,10.45
2022-12-08T23:36:49.405Z,10.21
2022-12-08T23:39:16.393Z,10.30
2022-12-08T23:41:43.356Z,9.98
2022-12-08T23:44:12.111Z,10.17
2022-12-08T23:46:39.272Z,10.24
2022-12-08T23:49:06.766Z,9.97
2022-12-08T23:51:33.712Z,10.06
2022-12-08T23:54:00.792Z,9.82
2022-12-08T23:56:30.516Z,9.49
2022-12-08T23:58:57.643Z,9.57
